Detall de PIREP

Printer-friendly versionPDF version

[2016/08/20 10:17:00]
Flight IATA:CT2202
Pilot Number:012
Company ICAO:CAT
Aircraft Type:F50/A
PAX:50
Aircraft Registration:PAOB
Departing Airport: LFMP
Destination Airport: LFBD
Alternate Airport:LFBG
Online: VATSIM
Route:ORBIL G36 GAI UT24 SECHE R17 MIRBA
Flight Level:F240
No Slew and time accel
No pause
Crash detect
Detect pilot in Cockpit between each 30 and 45 minutes
10:17 Zero fuel Weight: 38621 Lbs, Fuel Weight: 5090 Lbs
10:17 VATSIM:LFMP 201000Z AUTO 32009KT CAVOK 27/15 Q1016 NOSIG
10:17 VATSIM:LFBD 201000Z AUTO 22010KT 9999 FEW033/// BKN058/// OVC072/// ///CB 19/15 Q1019 NOSIG
10:23 Parking Brakes off
10:26 Take-off
10:26 Take off Weight: 43632 Lbs
10:26 Wind: 319º @ 009 Knots Heading: 327º
10:26 POS N42º 44´ 58´´ E002º 51´ 55´´
10:26 Gear Up: 127 Knots
10:26 Flaps:1 at 127 Knots
10:26 Flaps:0 at 134 Knots
10:41 Wind:259º@035 Knots Heading: 319º GroundSpeed: 220 Knots Altitude 18054 ft
10:56 Wind:253º@042 Knots Heading: 290º Ground Speed: 225 Knots Altitude 18192 ft
11:11 Wind:264º@043 Knots Heading: 325º Ground Speed: 240 Knots Altitude 15200 ft
11:26 Wind:225º@008 Knots Heading: 280º Ground Speed: 212 Knots Altitude 3231 ft
11:28 Flaps:1 at 194 Knots
11:28 Flaps:2 at 162 Knots
11:28 Gear Down: 146 Knots
11:29 Flaps:3 at 126 Knots
11:29 Flaps:4 at 134 Knots
11:30 Flaps:5 at 134 Knots
11:32 TouchDown:Rate -177 ft/min Speed: 116 Knots
11:32 Flaps:3 at 44 Knots
11:32 Flaps:0 at 43 Knots
11:33 VATSIM:LFBD 201100Z AUTO 22006KT 190V250 CAVOK 21/16 Q1019 TEMPO SCT025TCU
11:33 Land
11:33 Wind:210º@007 Knots
11:33 Heading: 224º
11:33 Flight Duration: 01:07
11:33 Landing Weight: 41856 Lbs
11:33 POS N44º 49´ 56´´ W000º 42´ 34´´
11:35 Parking brakes on
11:35 Block to Block Duration: 01:12
11:35 Final Fuel: 3214 Lbls
11:35 Spent Fuel: 1876 Lbls
11:35 Flight Length: 228 NM
11:35 TOD Land Length: 228 NM

Exportar CSV

Powered by Drupal - Modified by Danger4k